Pittsburgh, Pennsylvania
Traffic Map
Current Weather Conditions
Pittsburgh, Pennsylvania
Overcast
Overcast
69°
Feels Like: 69°
Wind Chill: 69° Ceiling: 1500
Heat Index: 69° Visibility: 7mi
Dew Point: 63° Wind: 7mph
Humidity: 81% Direction: 180° (S)
Pressure: 29.77in Gusts: 0mph
Raw Report DataKAGC 211553Z 18006KT 7SM OVC015 21/17 A2977 RMK AO2 SLP079 T02060172
Traffic Incident Summary
Active as of:
Severity:
Category:
InformationThere was an issue retrieving the traffic information for this location. Please try a different location or try again shortly.
Advertisements
Track Severe Weather on mobile